Baneberry, Tennessee
Current Conditions -  °F | °C
As of 11:35 AM on Thursday 29 Jan 2015 (Local Time) from KMOR Reporting Station
Scattered Clouds Scattered Clouds  
Wind Chill: 34°   Ceiling: Unl
Heat Index: 34°   Visibility: 8mi
Dew Point: 30°   Wind: 3mph
Humidity: 87%   Direction: 90°E
Pressure: 30.14"   Gusts: NA
Location:  36.0865°N, 83.3026°W
Report Text: KMOR 291635Z AUTO 09003KT 8SM FEW043 SCT050 01/M01 A3014 RMK
Loading
Personal Weather Stations






























Interactive Weather Map New forecast layout! Learn more

10-Day Weather Forecast

Advertisements
Track Severe Weather on mobile